Time;durP1;ratioP1;P1;durP2;ratioP2;P2;SDS_P1;SDS_P2;PMS_P1;PMS_P2;Temp;Humidity;BMP_temperature;BMP_pressure;BME280_temperature;BME280_humidity;BME280_pressure;Samples;Min_cycle;Max_cycle;Signal;HPM_P1;HPM_P2
2023/03/10 00:01:27;;;;;;;2.20;1.00;;;11.10;90.60;;;;;;5054270;28;20221;-71
2023/03/10 00:03:54;;;;;;;3.43;1.40;;;11.10;90.90;;;;;;5053707;28;20530;-72
2023/03/10 00:06:23;;;;;;;3.27;1.20;;;11.00;91.30;;;;;;5054132;28;20479;-72
2023/03/10 00:08:49;;;;;;;3.20;1.20;;;11.10;91.20;;;;;;5054013;28;20471;-72
2023/03/10 00:11:14;;;;;;;5.93;1.17;;;11.10;92.00;;;;;;5053814;28;20466;-72
2023/03/10 00:13:40;;;;;;;4.13;0.93;;;11.10;92.50;;;;;;5053580;28;20424;-71
2023/03/10 00:16:07;;;;;;;3.77;1.63;;;11.10;92.40;;;;;;5053610;28;20663;-72
2023/03/10 00:18:32;;;;;;;5.13;0.90;;;11.00;92.40;;;;;;5053461;28;20907;-71
2023/03/10 00:20:58;;;;;;;2.07;0.93;;;11.00;92.50;;;;;;5053284;28;20624;-72
2023/03/10 00:23:24;;;;;;;4.43;1.43;;;11.00;92.40;;;;;;5052197;28;20189;-71
2023/03/10 00:25:55;;;;;;;3.77;1.27;;;10.90;92.90;;;;;;5053060;28;20238;-71
2023/03/10 00:28:20;;;;;;;1.83;0.80;;;10.90;93.20;;;;;;5052854;28;20205;-71
2023/03/10 00:30:56;;;;;;;3.20;0.63;;;10.90;93.00;;;;;;5053190;28;20436;-71
2023/03/10 00:33:22;;;;;;;2.87;1.03;;;10.90;93.30;;;;;;5052491;28;20665;-71
2023/03/10 00:35:48;;;;;;;2.67;0.90;;;10.80;93.70;;;;;;5051781;28;20438;-72
2023/03/10 00:38:13;;;;;;;1.93;1.03;;;10.80;93.70;;;;;;5051544;28;20783;-72
2023/03/10 00:40:39;;;;;;;3.37;0.80;;;10.80;93.90;;;;;;5050146;28;21004;-72
2023/03/10 00:43:04;;;;;;;5.40;1.37;;;10.70;94.10;;;;;;5049947;28;20193;-72
2023/03/10 00:45:30;;;;;;;1.90;0.90;;;10.70;94.50;;;;;;5049907;28;20189;-72
2023/03/10 00:47:55;;;;;;;3.50;1.40;;;10.60;94.60;;;;;;5049862;28;20192;-72
2023/03/10 00:50:21;;;;;;;4.07;1.00;;;10.60;94.90;;;;;;5049964;28;20941;-72
2023/03/10 00:52:46;;;;;;;2.10;1.00;;;10.50;94.60;;;;;;5049916;28;20275;-72
2023/03/10 00:55:12;;;;;;;2.00;1.30;;;10.70;94.50;;;;;;5049779;28;20193;-72
2023/03/10 00:57:38;;;;;;;4.63;1.43;;;10.60;94.40;;;;;;5049579;28;20749;-72
2023/03/10 01:00:05;;;;;;;3.23;0.90;;;10.70;94.90;;;;;;5049456;28;20661;-72
2023/03/10 01:02:31;;;;;;;4.03;0.90;;;10.70;94.50;;;;;;5049749;28;20291;-72
2023/03/10 01:04:56;;;;;;;3.63;1.00;;;10.70;94.60;;;;;;5049921;28;20517;-72
2023/03/10 01:07:22;;;;;;;2.73;1.00;;;10.80;94.70;;;;;;5049774;28;20189;-72
2023/03/10 01:09:48;;;;;;;1.87;0.90;;;10.80;94.40;;;;;;5050074;28;20209;-72
2023/03/10 01:12:13;;;;;;;3.30;0.87;;;10.80;94.60;;;;;;5049941;28;20200;-71
2023/03/10 01:14:39;;;;;;;1.70;0.90;;;10.90;94.80;;;;;;5050026;28;20212;-72
2023/03/10 01:17:04;;;;;;;2.97;1.00;;;10.90;95.70;;;;;;5050092;28;20610;-72
2023/03/10 01:19:30;;;;;;;0.80;0.80;;;10.90;95.00;;;;;;5049927;28;20298;-72
2023/03/10 01:21:56;;;;;;;4.63;1.27;;;10.80;95.30;;;;;;5049879;28;20685;-72
2023/03/10 01:24:21;;;;;;;6.10;1.30;;;10.90;95.30;;;;;;5049913;28;20277;-72
2023/03/10 01:26:47;;;;;;;3.93;0.80;;;10.90;95.50;;;;;;5049893;28;20182;-72
2023/03/10 01:29:12;;;;;;;3.33;1.00;;;10.90;95.70;;;;;;5049735;28;20216;-72
2023/03/10 01:31:40;;;;;;;5.00;1.30;;;10.90;95.70;;;;;;5049796;28;20190;-72
2023/03/10 01:34:06;;;;;;;3.63;1.23;;;11.00;95.20;;;;;;5049382;28;20206;-72
2023/03/10 01:36:31;;;;;;;5.60;1.10;;;11.00;95.70;;;;;;5049331;28;20453;-72
2023/03/10 01:38:59;;;;;;;1.40;0.87;;;11.00;95.90;;;;;;5048833;28;20703;-72
2023/03/10 01:41:24;;;;;;;2.33;1.20;;;11.00;96.40;;;;;;5048848;28;20229;-72
2023/03/10 01:43:53;;;;;;;3.70;1.47;;;11.00;96.30;;;;;;5049031;28;20416;-72
2023/03/10 01:46:18;;;;;;;7.90;1.53;;;11.00;96.70;;;;;;5048736;28;20186;-72
2023/03/10 01:48:44;;;;;;;3.20;1.60;;;11.10;96.80;;;;;;5048688;28;20430;-72
2023/03/10 01:51:10;;;;;;;2.33;0.80;;;11.20;96.60;;;;;;5048679;28;20184;-72
2023/03/10 01:53:36;;;;;;;3.93;1.13;;;11.10;97.00;;;;;;5047192;28;20424;-72
2023/03/10 01:56:03;;;;;;;3.97;1.20;;;11.30;97.20;;;;;;5048796;28;20422;-71
2023/03/10 01:58:37;;;;;;;1.73;0.70;;;11.30;97.20;;;;;;5048587;28;20206;-72
2023/03/10 02:01:03;;;;;;;5.37;1.10;;;11.40;97.20;;;;;;5048445;28;20459;-72
2023/03/10 02:03:47;;;;;;;7.33;1.17;;;11.30;97.70;;;;;;5048519;28;20431;-71
2023/03/10 02:06:15;;;;;;;2.90;0.80;;;11.30;98.50;;;;;;5048643;28;20420;-72
2023/03/10 02:08:44;;;;;;;1.23;0.60;;;11.40;98.50;;;;;;5048333;28;20479;-71
2023/03/10 02:11:11;;;;;;;1.20;0.73;;;11.40;99.90;;;;;;5048499;28;20425;-72
2023/03/10 02:13:37;;;;;;;2.80;1.00;;;11.30;99.90;;;;;;5048639;28;20418;-72
2023/03/10 02:16:03;;;;;;;1.80;0.40;;;11.20;99.90;;;;;;5048407;28;20466;-72
2023/03/10 02:18:29;;;;;;;3.43;0.70;;;11.10;99.90;;;;;;5048097;28;20205;-72
2023/03/10 02:21:16;;;;;;;0.90;0.50;;;11.10;99.90;;;;;;5048181;28;20419;-72
2023/03/10 02:23:47;;;;;;;1.10;0.50;;;10.90;99.90;;;;;;5048376;28;20430;-73
2023/03/10 02:26:58;;;;;;;3.13;0.70;;;10.80;99.90;;;;;;5048244;28;20419;-72
2023/03/10 02:29:36;;;;;;;2.00;0.60;;;10.60;99.90;;;;;;5046824;28;20820;-71
2023/03/10 02:32:03;;;;;;;1.10;0.60;;;10.40;99.90;;;;;;5048206;28;21042;-72
2023/03/10 02:34:28;;;;;;;3.03;0.60;;;10.30;99.90;;;;;;5048178;28;20504;-72
2023/03/10 02:36:54;;;;;;;0.97;0.50;;;10.20;99.90;;;;;;5048059;28;20861;-73
2023/03/10 02:39:20;;;;;;;1.10;0.70;;;10.10;99.90;;;;;;5048199;28;20826;-72
2023/03/10 02:41:46;;;;;;;6.33;0.57;;;10.00;99.90;;;;;;5047916;28;20608;-72
2023/03/10 02:44:15;;;;;;;1.53;0.70;;;9.90;99.90;;;;;;5047962;28;20511;-72
2023/03/10 02:46:41;;;;;;;1.10;0.60;;;9.90;99.90;;;;;;5051238;28;20429;-72
2023/03/10 02:49:09;;;;;;;1.20;0.53;;;9.80;99.90;;;;;;5052131;28;20434;-72
2023/03/10 02:51:38;;;;;;;2.83;0.60;;;9.80;99.90;;;;;;5052211;28;20179;-73
2023/03/10 02:54:07;;;;;;;0.60;0.40;;;9.80;99.90;;;;;;5052163;28;20424;-72
2023/03/10 02:56:35;;;;;;;0.70;0.40;;;9.80;99.90;;;;;;5052114;28;21093;-72
2023/03/10 02:59:02;;;;;;;1.53;0.60;;;9.80;99.90;;;;;;5051875;28;20440;-73
2023/03/10 03:01:31;;;;;;;1.53;0.40;;;9.70;99.90;;;;;;5052031;28;20473;-73
2023/03/10 03:03:57;;;;;;;1.77;0.50;;;9.90;99.90;;;;;;5051879;28;20422;-73
2023/03/10 03:06:23;;;;;;;0.70;0.50;;;9.80;99.90;;;;;;5051908;28;20534;-73
2023/03/10 03:08:49;;;;;;;1.63;0.50;;;9.80;99.90;;;;;;5051459;28;21114;-73
2023/03/10 03:11:15;;;;;;;0.80;0.40;;;9.80;99.90;;;;;;5051339;28;20277;-73
2023/03/10 03:13:41;;;;;;;0.90;0.40;;;9.80;99.90;;;;;;5051556;28;20209;-73
2023/03/10 03:16:08;;;;;;;1.10;0.50;;;9.80;99.90;;;;;;5051417;28;20452;-74
2023/03/10 03:18:34;;;;;;;0.80;0.50;;;9.80;99.90;;;;;;5051292;28;20434;-73
2023/03/10 03:21:09;;;;;;;0.70;0.43;;;9.80;99.90;;;;;;5051351;28;20487;-73
2023/03/10 03:23:36;;;;;;;0.90;0.50;;;9.80;99.90;;;;;;5051476;28;20422;-73
2023/03/10 03:26:03;;;;;;;4.57;0.73;;;9.90;99.90;;;;;;5051629;28;21094;-73
2023/03/10 03:28:29;;;;;;;1.00;0.40;;;9.80;99.90;;;;;;5049891;28;20454;-73
2023/03/10 03:30:54;;;;;;;0.70;0.40;;;9.80;99.90;;;;;;5051624;28;20417;-72
2023/03/10 03:33:20;;;;;;;0.70;0.47;;;9.80;99.90;;;;;;5051725;28;20889;-73
2023/03/10 03:35:46;;;;;;;0.60;0.30;;;9.80;99.90;;;;;;5051512;28;20197;-72
2023/03/10 03:38:11;;;;;;;0.70;0.40;;;9.80;99.90;;;;;;5051901;28;20243;-73
2023/03/10 03:40:37;;;;;;;0.70;0.40;;;9.90;99.90;;;;;;5051889;28;20264;-72
2023/03/10 03:43:03;;;;;;;1.07;0.40;;;9.90;99.90;;;;;;5051578;28;20247;-72
2023/03/10 03:45:30;;;;;;;0.60;0.40;;;9.90;99.90;;;;;;5051831;28;20190;-73
2023/03/10 03:47:56;;;;;;;0.80;0.47;;;9.90;99.90;;;;;;5051565;28;20457;-72
2023/03/10 03:50:22;;;;;;;1.30;0.47;;;9.90;99.90;;;;;;5051919;28;20414;-73
2023/03/10 03:52:48;;;;;;;0.70;0.47;;;10.00;99.90;;;;;;5051689;28;20175;-72
2023/03/10 03:55:16;;;;;;;1.63;0.53;;;10.00;99.90;;;;;;5051508;28;20496;-73
2023/03/10 03:57:43;;;;;;;0.73;0.40;;;10.00;99.90;;;;;;5051413;28;20832;-72
2023/03/10 04:00:15;;;;;;;1.27;0.40;;;10.00;99.90;;;;;;5051392;28;20437;-72
2023/03/10 04:02:41;;;;;;;2.00;0.47;;;10.00;99.90;;;;;;5051121;28;20461;-74
2023/03/10 04:05:07;;;;;;;0.80;0.43;;;10.10;99.90;;;;;;5050990;28;20438;-73
2023/03/10 04:07:33;;;;;;;1.20;0.50;;;10.00;99.90;;;;;;5050814;28;20419;-73
2023/03/10 04:09:59;;;;;;;1.00;0.60;;;10.00;99.90;;;;;;5050754;28;21029;-73
2023/03/10 04:12:26;;;;;;;1.73;0.40;;;10.10;99.90;;;;;;5050454;28;20188;-73
2023/03/10 04:14:52;;;;;;;1.30;0.50;;;10.00;99.90;;;;;;5050596;28;20192;-73
2023/03/10 04:17:17;;;;;;;0.70;0.40;;;9.90;99.90;;;;;;5050420;28;20434;-72
2023/03/10 04:19:43;;;;;;;1.37;0.50;;;10.00;99.90;;;;;;5050320;28;20450;-73
2023/03/10 04:22:09;;;;;;;2.13;0.57;;;10.00;99.90;;;;;;5050418;28;20222;-73
2023/03/10 04:24:38;;;;;;;1.33;0.40;;;10.00;99.90;;;;;;5050281;28;20187;-73
2023/03/10 04:27:04;;;;;;;2.27;0.70;;;10.00;99.90;;;;;;5050144;28;20182;-73
2023/03/10 04:29:29;;;;;;;0.70;0.50;;;10.00;99.90;;;;;;5050161;28;21002;-73
2023/03/10 04:31:55;;;;;;;1.20;0.60;;;10.00;99.90;;;;;;5050102;28;20192;-73
2023/03/10 04:34:20;;;;;;;1.97;0.60;;;10.00;99.90;;;;;;5050619;28;20238;-73
2023/03/10 04:36:46;;;;;;;1.50;0.53;;;10.00;99.90;;;;;;5049803;28;20213;-73
2023/03/10 04:39:12;;;;;;;1.83;0.70;;;10.00;99.90;;;;;;5049755;28;20208;-73
2023/03/10 04:41:37;;;;;;;0.80;0.60;;;10.00;99.90;;;;;;5050013;28;20260;-72
2023/03/10 04:44:03;;;;;;;2.37;0.60;;;9.90;99.90;;;;;;5049982;28;20192;-72
2023/03/10 04:46:30;;;;;;;2.20;0.90;;;9.90;99.90;;;;;;5050010;28;20824;-72
2023/03/10 04:48:56;;;;;;;3.63;1.07;;;9.80;99.90;;;;;;5050944;28;21044;-73
2023/03/10 04:51:22;;;;;;;1.00;0.50;;;9.70;99.90;;;;;;5050096;28;20501;-72
2023/03/10 04:53:47;;;;;;;0.90;0.40;;;9.60;99.90;;;;;;5049674;28;20427;-72
2023/03/10 04:56:13;;;;;;;1.67;0.80;;;9.70;99.90;;;;;;5049733;28;20190;-72
2023/03/10 04:58:38;;;;;;;2.00;0.50;;;9.60;99.90;;;;;;5049645;28;20200;-72
2023/03/10 05:01:12;;;;;;;1.00;0.60;;;9.60;99.90;;;;;;5049590;28;20183;-73
2023/03/10 05:03:38;;;;;;;0.77;0.50;;;9.70;99.90;;;;;;5049876;28;20181;-73
2023/03/10 05:06:04;;;;;;;2.33;0.80;;;9.60;99.90;;;;;;5049630;28;20466;-73
2023/03/10 05:08:30;;;;;;;1.13;0.40;;;9.60;99.90;;;;;;5049102;28;20430;-73
2023/03/10 05:10:55;;;;;;;1.50;0.50;;;9.60;99.90;;;;;;5049780;28;20448;-74
2023/03/10 05:13:21;;;;;;;2.00;0.70;;;9.60;99.90;;;;;;5049631;28;20179;-72
2023/03/10 05:15:47;;;;;;;1.77;0.70;;;9.60;99.90;;;;;;5049676;28;20179;-72
2023/03/10 05:18:13;;;;;;;0.80;0.60;;;9.60;99.90;;;;;;5049545;28;20200;-72
2023/03/10 05:20:39;;;;;;;1.47;0.57;;;9.60;99.90;;;;;;5049447;28;20828;-72
2023/03/10 05:23:05;;;;;;;2.90;0.80;;;9.60;99.90;;;;;;5049520;28;20230;-73
2023/03/10 05:25:31;;;;;;;0.80;0.40;;;9.60;99.90;;;;;;5049769;28;20867;-73
2023/03/10 05:27:56;;;;;;;0.80;0.47;;;9.70;99.90;;;;;;5049678;28;20498;-73
2023/03/10 05:30:22;;;;;;;1.40;0.50;;;9.70;99.90;;;;;;5049817;28;20187;-73
2023/03/10 05:32:47;;;;;;;3.10;0.90;;;9.70;99.90;;;;;;5049817;28;20181;-72
2023/03/10 05:35:13;;;;;;;0.90;0.50;;;9.70;99.90;;;;;;5049674;28;20211;-72
2023/03/10 05:37:41;;;;;;;1.30;0.80;;;9.70;99.90;;;;;;5049829;28;20615;-72
2023/03/10 05:40:10;;;;;;;2.70;0.53;;;9.80;99.90;;;;;;5049768;28;20495;-71
2023/03/10 05:42:36;;;;;;;1.73;0.73;;;9.70;99.90;;;;;;5049642;28;20465;-72
2023/03/10 05:45:03;;;;;;;0.83;0.53;;;9.70;99.90;;;;;;5049666;28;20423;-71
2023/03/10 05:47:29;;;;;;;0.90;0.60;;;9.60;99.90;;;;;;5049791;28;20191;-72
2023/03/10 05:49:55;;;;;;;0.80;0.50;;;9.60;99.90;;;;;;5049388;28;20908;-71
2023/03/10 05:52:20;;;;;;;1.37;0.93;;;9.60;99.90;;;;;;5049559;28;20181;-71
2023/03/10 05:54:46;;;;;;;2.83;0.80;;;9.60;99.90;;;;;;5049262;28;20278;-71
2023/03/10 05:57:12;;;;;;;1.43;0.53;;;9.60;99.90;;;;;;5049147;28;20188;-72
2023/03/10 05:59:37;;;;;;;1.27;0.60;;;9.60;99.90;;;;;;5047744;28;20587;-74
2023/03/10 06:02:03;;;;;;;3.20;0.63;;;9.40;99.90;;;;;;5047151;28;20215;-72
2023/03/10 06:04:32;;;;;;;0.80;0.53;;;9.30;99.90;;;;;;5047370;28;20188;-72
2023/03/10 06:06:59;;;;;;;1.10;0.50;;;9.30;99.90;;;;;;5047191;28;20184;-72
2023/03/10 06:09:26;;;;;;;2.90;0.50;;;9.20;99.90;;;;;;5047173;28;20515;-72
2023/03/10 06:11:52;;;;;;;2.00;1.70;;;9.10;99.90;;;;;;5047089;28;20418;-72
2023/03/10 06:14:17;;;;;;;0.80;0.60;;;9.10;99.90;;;;;;5047062;28;20426;-72
2023/03/10 06:16:49;;;;;;;0.70;0.40;;;9.10;99.90;;;;;;5047403;28;20557;-72
2023/03/10 06:19:16;;;;;;;0.73;0.40;;;8.90;99.90;;;;;;5046824;28;20218;-72
2023/03/10 06:21:41;;;;;;;1.57;0.63;;;9.00;99.90;;;;;;5046627;28;20842;-72
2023/03/10 06:24:07;;;;;;;1.17;0.60;;;9.00;99.90;;;;;;5047270;28;20977;-72
2023/03/10 06:26:33;;;;;;;1.97;0.60;;;8.90;99.90;;;;;;5047952;28;20188;-72
2023/03/10 06:28:58;;;;;;;1.07;0.50;;;8.90;99.90;;;;;;5047380;28;20211;-71
2023/03/10 06:31:24;;;;;;;0.97;0.50;;;8.90;99.90;;;;;;5047610;28;20270;-71
2023/03/10 06:33:50;;;;;;;2.70;0.60;;;8.90;99.90;;;;;;5047522;28;20191;-72
2023/03/10 06:36:17;;;;;;;1.17;0.50;;;9.00;99.90;;;;;;5047561;28;20979;-72
2023/03/10 06:38:43;;;;;;;0.70;0.40;;;9.00;99.90;;;;;;5047527;28;20441;-72
2023/03/10 06:41:09;;;;;;;1.07;0.50;;;9.10;99.90;;;;;;5047456;28;20481;-72
2023/03/10 06:43:35;;;;;;;1.37;0.50;;;9.10;99.90;;;;;;5047589;28;20936;-72
2023/03/10 06:46:05;;;;;;;2.33;0.50;;;9.10;99.90;;;;;;5047623;28;20421;-71
2023/03/10 06:48:32;;;;;;;1.43;0.70;;;9.10;99.90;;;;;;5047337;28;20435;-71
2023/03/10 06:50:57;;;;;;;0.70;0.40;;;9.20;99.90;;;;;;5047490;28;20418;-72
2023/03/10 06:53:23;;;;;;;0.73;0.40;;;9.30;99.90;;;;;;5047513;28;20801;-72
2023/03/10 06:56:05;;;;;;;1.40;0.50;;;9.40;99.90;;;;;;5047594;28;20180;-72
2023/03/10 06:58:32;;;;;;;1.10;0.43;;;9.60;99.90;;;;;;5047291;28;20200;-72
2023/03/10 07:00:58;;;;;;;1.23;0.50;;;10.20;99.90;;;;;;5047291;28;20415;-72
2023/03/10 07:03:25;;;;;;;0.80;0.60;;;10.60;99.90;;;;;;5047569;28;20898;-72
2023/03/10 07:05:51;;;;;;;1.90;0.40;;;10.70;99.90;;;;;;5045833;28;20186;-72
2023/03/10 07:08:17;;;;;;;1.57;0.63;;;10.70;99.90;;;;;;5047126;28;20443;-72
2023/03/10 07:10:43;;;;;;;1.87;0.90;;;10.80;99.90;;;;;;5047271;28;20418;-72
2023/03/10 07:13:12;;;;;;;0.90;0.50;;;10.60;99.90;;;;;;5047325;28;20458;-72
2023/03/10 07:15:39;;;;;;;0.70;0.50;;;10.50;99.90;;;;;;5047350;28;20211;-71
2023/03/10 07:18:04;;;;;;;1.23;0.60;;;10.50;99.90;;;;;;5047070;28;20429;-71
2023/03/10 07:20:30;;;;;;;4.20;0.60;;;10.40;99.90;;;;;;5047229;28;20427;-71
2023/03/10 07:22:55;;;;;;;1.40;0.50;;;10.30;99.90;;;;;;5047443;28;20232;-71
2023/03/10 07:25:21;;;;;;;1.20;0.60;;;10.30;99.90;;;;;;5047099;28;20694;-72
2023/03/10 07:27:47;;;;;;;0.70;0.40;;;10.30;99.90;;;;;;5046828;28;20206;-72
2023/03/10 07:30:13;;;;;;;1.17;0.60;;;10.20;99.90;;;;;;5047180;28;20245;-72
2023/03/10 07:32:39;;;;;;;1.23;0.47;;;10.20;99.90;;;;;;5049706;28;20194;-72
2023/03/10 07:35:05;;;;;;;0.70;0.47;;;10.20;99.90;;;;;;5050220;28;20422;-72
2023/03/10 07:37:30;;;;;;;1.70;0.50;;;10.20;99.90;;;;;;5049925;28;20779;-72
2023/03/10 07:39:56;;;;;;;1.40;1.00;;;10.20;99.90;;;;;;5049881;28;20525;-72
2023/03/10 07:42:22;;;;;;;0.80;0.60;;;10.10;99.90;;;;;;5049637;28;20216;-71
2023/03/10 07:44:47;;;;;;;0.90;0.50;;;10.00;99.90;;;;;;5049674;28;20190;-72
2023/03/10 07:47:13;;;;;;;0.90;0.50;;;10.20;99.90;;;;;;5049566;28;20513;-72
2023/03/10 07:49:45;;;;;;;0.70;0.50;;;10.10;99.90;;;;;;5049556;28;20195;-72
2023/03/10 07:52:11;;;;;;;1.00;0.80;;;10.20;99.90;;;;;;5049641;28;20683;-73
2023/03/10 07:54:37;;;;;;;1.07;0.60;;;10.30;99.90;;;;;;5049629;28;20426;-73
2023/03/10 07:57:02;;;;;;;0.80;0.57;;;10.30;99.90;;;;;;5049617;28;20445;-72
2023/03/10 07:59:28;;;;;;;1.20;0.50;;;10.30;99.90;;;;;;5049399;28;20747;-72
2023/03/10 08:01:54;;;;;;;0.70;0.50;;;10.20;99.90;;;;;;5049527;28;20215;-72
2023/03/10 08:04:19;;;;;;;1.47;0.80;;;10.20;99.90;;;;;;5049759;28;20180;-72
2023/03/10 08:06:46;;;;;;;0.90;0.50;;;10.20;99.90;;;;;;5049611;28;21022;-72
2023/03/10 08:09:11;;;;;;;0.80;0.50;;;10.20;99.90;;;;;;5049251;28;20241;-72
2023/03/10 08:11:37;;;;;;;1.73;0.50;;;10.20;99.90;;;;;;5049358;28;20936;-72
2023/03/10 08:14:03;;;;;;;0.90;0.70;;;10.20;99.90;;;;;;5049158;28;20266;-72
2023/03/10 08:16:28;;;;;;;0.90;0.40;;;10.10;99.90;;;;;;5049162;28;20223;-72
2023/03/10 08:18:54;;;;;;;1.57;0.60;;;10.20;99.90;;;;;;5049110;28;20231;-72
2023/03/10 08:21:20;;;;;;;3.00;0.70;;;10.20;99.90;;;;;;5047769;28;20645;-72
2023/03/10 08:23:46;;;;;;;1.10;0.43;;;10.20;99.90;;;;;;5049500;28;20837;-72
2023/03/10 08:26:14;;;;;;;1.13;0.40;;;10.30;99.90;;;;;;5049564;28;20874;-71
2023/03/10 08:28:40;;;;;;;2.10;0.50;;;10.30;99.90;;;;;;5049061;28;20203;-72
2023/03/10 08:31:11;;;;;;;2.43;0.70;;;10.40;99.90;;;;;;5048612;28;20931;-71
2023/03/10 08:33:37;;;;;;;2.10;0.70;;;10.50;99.90;;;;;;5048798;28;20421;-72
2023/03/10 08:36:10;;;;;;;0.80;0.30;;;10.60;99.90;;;;;;5048759;28;20927;-73
2023/03/10 08:38:35;;;;;;;0.60;0.40;;;10.60;99.90;;;;;;5048858;28;20446;-72
2023/03/10 08:41:17;;;;;;;2.00;0.70;;;10.60;99.90;;;;;;5049109;28;20422;-72
2023/03/10 08:43:43;;;;;;;0.90;0.47;;;10.60;99.90;;;;;;5048335;28;20188;-73
2023/03/10 08:46:10;;;;;;;3.70;0.50;;;10.70;99.90;;;;;;5049214;28;20420;-72
2023/03/10 08:48:35;;;;;;;1.00;0.80;;;10.70;99.90;;;;;;5048833;28;20473;-72
2023/03/10 08:51:01;;;;;;;3.43;0.60;;;10.90;99.90;;;;;;5049116;28;20891;-72
2023/03/10 08:53:27;;;;;;;0.60;0.40;;;11.00;99.90;;;;;;5048719;28;20208;-73
2023/03/10 08:55:53;;;;;;;1.10;0.50;;;11.10;99.90;;;;;;5048629;28;20802;-72
2023/03/10 08:58:18;;;;;;;1.23;0.47;;;11.00;99.90;;;;;;5048239;28;20594;-72
2023/03/10 09:00:44;;;;;;;0.87;0.40;;;11.00;99.90;;;;;;5048478;28;20653;-73
2023/03/10 09:03:10;;;;;;;1.27;0.40;;;10.80;99.90;;;;;;5048573;28;20646;-72
2023/03/10 09:05:36;;;;;;;0.80;0.43;;;11.10;99.90;;;;;;5048198;28;20246;-73
2023/03/10 09:08:02;;;;;;;3.87;0.60;;;11.10;99.90;;;;;;5048265;28;20193;-71
2023/03/10 09:10:28;;;;;;;1.77;0.47;;;11.30;99.90;;;;;;5048111;28;20508;-72
2023/03/10 09:12:54;;;;;;;1.67;0.60;;;11.30;99.90;;;;;;5047956;28;20457;-72
2023/03/10 09:15:20;;;;;;;1.53;0.50;;;11.40;99.90;;;;;;5047907;28;20569;-72
2023/03/10 09:17:46;;;;;;;1.73;0.50;;;11.40;99.90;;;;;;5048015;28;21068;-72
2023/03/10 09:20:14;;;;;;;2.47;0.60;;;11.20;99.90;;;;;;5048185;28;20526;-72
2023/03/10 09:22:40;;;;;;;2.43;0.60;;;11.20;99.90;;;;;;5048107;28;20273;-72
2023/03/10 09:25:06;;;;;;;1.30;0.40;;;11.20;99.90;;;;;;5048057;28;20424;-72
2023/03/10 09:27:32;;;;;;;1.93;0.47;;;11.20;99.90;;;;;;5047831;28;20421;-72
2023/03/10 09:29:58;;;;;;;2.60;0.40;;;11.30;99.90;;;;;;5047952;28;20443;-71
2023/03/10 09:32:23;;;;;;;1.50;0.70;;;11.70;99.90;;;;;;5047710;28;20201;-72
2023/03/10 09:34:49;;;;;;;1.97;0.60;;;12.00;99.90;;;;;;5047597;28;20189;-72
2023/03/10 09:37:15;;;;;;;3.53;0.90;;;12.80;99.90;;;;;;5047397;28;20696;-72
2023/03/10 09:39:41;;;;;;;2.33;0.97;;;14.00;99.90;;;;;;5047751;28;20221;-73
2023/03/10 09:42:36;;;;;;;1.00;0.40;;;14.60;97.70;;;;;;5047949;28;20301;-72
2023/03/10 09:45:26;;;;;;;1.50;0.63;;;14.40;94.10;;;;;;5039449;28;20510;-72
2023/03/10 09:47:58;;;;;;;4.03;2.10;;;13.70;92.70;;;;;;5047607;28;20441;-72
2023/03/10 09:50:45;;;;;;;4.20;1.03;;;13.40;95.80;;;;;;5047662;28;20520;-72
2023/03/10 09:53:29;;;;;;;6.23;0.60;;;13.10;94.80;;;;;;5047825;28;20449;-72
2023/03/10 09:55:56;;;;;;;3.17;0.90;;;12.30;96.00;;;;;;5047602;28;20420;-71
2023/03/10 09:58:27;;;;;;;2.97;1.80;;;12.30;98.80;;;;;;5047670;28;20789;-71
2023/03/10 10:00:53;;;;;;;1.20;0.90;;;12.10;99.30;;;;;;5047893;28;20422;-73
2023/03/10 10:03:43;;;;;;;1.27;0.50;;;11.80;98.90;;;;;;5049256;28;20517;-72
2023/03/10 10:06:30;;;;;;;1.87;0.40;;;11.60;99.90;;;;;;5048091;28;20424;-71
2023/03/10 10:09:02;;;;;;;1.77;0.70;;;11.20;99.90;;;;;;5047915;28;20660;-72
2023/03/10 10:11:28;;;;;;;1.40;0.57;;;11.40;99.90;;;;;;5047994;28;20521;-72
2023/03/10 10:14:13;;;;;;;2.40;0.63;;;11.50;99.90;;;;;;5047857;28;20509;-72
2023/03/10 10:17:08;;;;;;;1.50;0.60;;;11.50;99.90;;;;;;5047859;28;20206;-72
2023/03/10 10:19:38;;;;;;;0.90;0.50;;;11.60;99.90;;;;;;5046068;28;20904;-72
2023/03/10 10:22:14;;;;;;;1.67;0.80;;;11.70;99.90;;;;;;5047470;28;20459;-72
2023/03/10 10:24:40;;;;;;;7.50;0.70;;;11.80;99.90;;;;;;5047494;28;20437;-71
2023/03/10 10:27:06;;;;;;;1.90;0.50;;;11.90;99.90;;;;;;5047461;28;20947;-72
2023/03/10 10:29:36;;;;;;;1.40;0.40;;;11.80;99.90;;;;;;5047422;28;20426;-72
2023/03/10 10:32:08;;;;;;;0.70;0.40;;;11.70;99.70;;;;;;5047513;28;20250;-72
2023/03/10 10:34:36;;;;;;;0.80;0.50;;;11.70;99.90;;;;;;5047231;28;20443;-72
2023/03/10 10:37:17;;;;;;;1.00;0.50;;;11.40;99.90;;;;;;5047029;28;20801;-72
2023/03/10 10:39:43;;;;;;;0.70;0.40;;;11.60;99.90;;;;;;5047023;28;20475;-73
2023/03/10 10:42:24;;;;;;;2.50;0.70;;;11.80;99.90;;;;;;5047145;28;20506;-72
2023/03/10 10:44:53;;;;;;;1.00;0.40;;;11.60;99.90;;;;;;5047112;28;20507;-72
2023/03/10 10:47:33;;;;;;;1.50;0.40;;;11.50;99.90;;;;;;5047209;28;20416;-71
2023/03/10 10:50:22;;;;;;;0.90;0.40;;;11.40;99.90;;;;;;5047020;28;20434;-72
2023/03/10 10:53:12;;;;;;;1.53;0.40;;;11.30;99.90;;;;;;5047079;28;20550;-72
2023/03/10 10:55:38;;;;;;;1.10;0.40;;;11.40;99.90;;;;;;5044316;28;20437;-72
2023/03/10 10:58:22;;;;;;;3.63;0.50;;;11.60;99.90;;;;;;5047447;28;20426;-72
2023/03/10 11:00:55;;;;;;;1.00;0.60;;;11.70;99.90;;;;;;5047185;28;20417;-71
2023/03/10 11:03:29;;;;;;;1.30;0.53;;;11.70;99.90;;;;;;5046451;28;20470;-72
2023/03/10 11:05:55;;;;;;;0.90;0.50;;;11.60;99.90;;;;;;5047051;28;20460;-72
2023/03/10 11:08:36;;;;;;;0.70;0.40;;;11.70;99.90;;;;;;5050690;28;20437;-72
2023/03/10 11:11:17;;;;;;;0.80;0.50;;;11.60;99.90;;;;;;5050321;28;20971;-72
2023/03/10 11:13:59;;;;;;;0.83;0.40;;;11.50;99.90;;;;;;5050624;28;20433;-71
2023/03/10 11:16:38;;;;;;;1.10;0.40;;;11.20;99.90;;;;;;5050495;28;20414;-70
2023/03/10 11:19:07;;;;;;;1.63;0.40;;;11.40;99.90;;;;;;5050405;28;20447;-71
2023/03/10 11:21:38;;;;;;;0.80;0.40;;;11.60;99.90;;;;;;5050419;28;20457;-71
2023/03/10 11:24:13;;;;;;;1.20;0.50;;;11.60;99.90;;;;;;5050123;28;20430;-71
2023/03/10 11:26:56;;;;;;;0.80;0.40;;;11.60;99.90;;;;;;5050097;28;20987;-72
2023/03/10 11:29:59;;;;;;;1.00;0.40;;;11.80;99.90;;;;;;5050022;28;20431;-71
2023/03/10 11:32:36;;;;;;;0.80;0.43;;;11.60;98.30;;;;;;5050163;28;21241;-72
2023/03/10 11:35:17;;;;;;;0.73;0.40;;;12.00;99.90;;;;;;5050187;28;20423;-72
2023/03/10 11:37:50;;;;;;;1.10;0.60;;;12.10;99.50;;;;;;5050076;28;20426;-72
2023/03/10 11:40:22;;;;;;;0.97;0.40;;;11.60;98.50;;;;;;5049817;28;21329;-72
2023/03/10 11:42:59;;;;;;;0.97;0.40;;;11.60;99.20;;;;;;5049811;28;20495;-71
2023/03/10 11:45:39;;;;;;;0.70;0.37;;;11.70;99.90;;;;;;5049931;28;20416;-71
2023/03/10 11:48:42;;;;;;;1.23;0.40;;;11.40;99.90;;;;;;5049608;28;20469;-71
2023/03/10 11:51:32;;;;;;;2.90;0.43;;;11.40;99.90;;;;;;5049900;28;20887;-70
2023/03/10 11:54:02;;;;;;;0.90;0.50;;;11.50;99.90;;;;;;5049522;28;20451;-72
2023/03/10 11:56:28;;;;;;;2.27;0.50;;;11.50;99.90;;;;;;5049630;28;20410;-72
2023/03/10 11:59:00;;;;;;;1.20;0.60;;;11.10;99.90;;;;;;5049723;28;20525;-72
2023/03/10 12:01:39;;;;;;;1.40;0.60;;;11.00;99.90;;;;;;5049878;28;20200;-72
2023/03/10 12:04:26;;;;;;;1.13;0.40;;;10.90;99.90;;;;;;5049573;28;20897;-71
2023/03/10 12:06:58;;;;;;;1.87;0.50;;;10.90;99.90;;;;;;5049236;28;20457;-71
2023/03/10 12:09:35;;;;;;;0.80;0.40;;;11.10;99.90;;;;;;5049476;28;20432;-72
2023/03/10 12:12:02;;;;;;;2.37;0.80;;;11.00;99.90;;;;;;5049411;28;20855;-71
2023/03/10 12:14:29;;;;;;;0.70;0.40;;;11.00;99.90;;;;;;5049521;28;20536;-72
2023/03/10 12:16:55;;;;;;;0.70;0.40;;;10.60;99.90;;;;;;5049634;28;20420;-71
2023/03/10 12:19:21;;;;;;;0.70;0.40;;;10.70;99.90;;;;;;5048286;28;20439;-71
2023/03/10 12:22:23;;;;;;;1.63;0.47;;;10.80;99.90;;;;;;5049611;28;21094;-72
2023/03/10 12:24:49;;;;;;;1.10;0.40;;;10.70;99.90;;;;;;5049948;28;20208;-71
2023/03/10 12:27:15;;;;;;;0.80;0.40;;;10.70;99.90;;;;;;5049786;28;20422;-72
2023/03/10 12:29:43;;;;;;;1.27;0.40;;;10.70;99.90;;;;;;5050189;28;20469;-72
2023/03/10 12:32:41;;;;;;;1.00;0.40;;;10.70;99.90;;;;;;5049550;28;20187;-72
2023/03/10 12:35:34;;;;;;;2.90;0.50;;;10.70;99.90;;;;;;5049543;28;20421;-71
2023/03/10 12:38:30;;;;;;;0.80;0.40;;;10.90;99.90;;;;;;5049653;28;20420;-71
2023/03/10 12:40:56;;;;;;;0.73;0.40;;;10.90;99.90;;;;;;5049609;28;20410;-70
2023/03/10 12:43:42;;;;;;;1.50;0.40;;;10.90;99.90;;;;;;5049417;28;20497;-71
2023/03/10 12:46:11;;;;;;;1.87;0.53;;;11.10;99.90;;;;;;5049299;28;20405;-71
2023/03/10 12:48:42;;;;;;;1.47;0.40;;;11.20;99.90;;;;;;5049375;28;20439;-71
2023/03/10 12:51:11;;;;;;;2.43;0.63;;;11.10;99.90;;;;;;5049418;28;20469;-71
2023/03/10 12:53:46;;;;;;;2.03;0.63;;;11.00;99.90;;;;;;5049341;28;20946;-71
2023/03/10 12:56:11;;;;;;;0.70;0.40;;;10.90;99.90;;;;;;5049341;28;20409;-71
2023/03/10 12:58:58;;;;;;;0.70;0.40;;;11.00;99.90;;;;;;5049130;28;20993;-72
2023/03/10 13:01:31;;;;;;;2.80;0.50;;;11.00;99.90;;;;;;5044777;28;21022;-71